Humidity-temperature Sensor

Selected Measurement Type: Air Temperature

 
Air Temperature [°C]     6 entries per hour
Showing data from 4/21/2018 (00:00:00 Z) to 4/18/2018 (00:01:00 Z)
Previous Next [ Day | 3-Days | 7-Days ]
First Last
Prev [ Day | 3-Days | 7-Days ] Next
First Last

Start Time:     :
End Time:     :     
Time (in GMT) :00 :50 :40 :30 :20 :10
Previous Next [ Day | 3-Days | 7-Days ]
First Last
Prev [ Day | 3-Days | 7-Days ] Next
First Last


123 => good data
MM => data is determined as missing
-- => data not received/configured
Back to Top Back to Top
4/21/2018 00:00 to 23:10 26.62 26.61 26.70 26.73 26.64 26.66
4/20/2018 23:00 to 22:10 26.60 26.65 26.63 26.66 26.76 26.90
4/20/2018 22:00 to 21:10 26.78 26.81 26.76 26.79 26.75 26.87
4/20/2018 21:00 to 20:10 26.86 26.65 26.90 26.67 26.78 26.81
4/20/2018 20:00 to 19:10 26.84 26.74 26.74 26.77 26.79 26.83
4/20/2018 19:00 to 18:10 26.80 26.80 26.87 26.77 26.77 26.76
4/20/2018 18:00 to 17:10 26.73 26.76 26.79 26.81 26.67 26.78
4/20/2018 17:00 to 16:10 26.73 26.66 26.72 26.69 26.70 26.73
4/20/2018 16:00 to 15:10 26.70 26.68 26.81 26.68 26.68 26.69
4/20/2018 15:00 to 14:10 26.52 26.50 26.59 26.63 26.67 26.57
4/20/2018 14:00 to 13:10 26.60 26.54 26.51 26.49 26.58 26.72
4/20/2018 13:00 to 12:10 26.41 26.38 26.30 26.30 26.27 26.30
4/20/2018 12:00 to 11:10 26.30 26.27 26.32 26.35 26.20 26.31
4/20/2018 11:00 to 10:10 26.25 26.27 26.23 26.28 26.29 26.27
4/20/2018 10:00 to 9:10 26.30 26.34 26.28 26.33 26.26 26.36
4/20/2018 09:00 to 8:10 26.30 26.24 26.22 26.31 26.36 26.35
4/20/2018 08:00 to 7:10 26.35 26.33 26.38 26.28 26.43 26.49
4/20/2018 07:00 to 6:10 26.39 26.35 26.51 26.42 26.42 26.42
4/20/2018 06:00 to 5:10 26.48 26.43 26.42 26.46 26.42 26.37
4/20/2018 05:00 to 4:10 26.50 26.43 26.48 26.60 26.52 26.61
4/20/2018 04:00 to 3:10 26.43 26.42 26.50 26.49 26.51 26.50
4/20/2018 03:00 to 2:10 26.42 26.47 26.56 26.45 26.54 26.48
4/20/2018 02:00 to 1:10 26.49 26.43 26.47 26.42 26.45 26.41
4/20/2018 01:00 to 0:10 26.44 26.43 26.55 26.54 26.46 26.46
4/20/2018 00:00 to 23:10 26.69 26.55 26.56 26.63 26.61 26.55
4/19/2018 23:00 to 22:10 26.51 26.70 26.64 26.59 26.60 26.84
4/19/2018 22:00 to 21:10 26.54 26.50 26.72 26.72 26.60 26.65
4/19/2018 21:00 to 20:10 26.69 26.59 26.66 26.60 26.66 26.72
4/19/2018 20:00 to 19:10 26.74 26.82 26.79 26.77 26.65 26.79
4/19/2018 19:00 to 18:10 26.73 26.82 26.77 26.80 26.77 26.75
4/19/2018 18:00 to 17:10 26.81 26.78 26.77 26.76 26.80 26.81
4/19/2018 17:00 to 16:10 26.82 26.72 26.75 26.75 26.77 26.89
4/19/2018 16:00 to 15:10 26.79 26.78 26.66 26.69 26.63 26.65
4/19/2018 15:00 to 14:10 26.60 26.68 26.51 26.52 26.61 26.64
4/19/2018 14:00 to 13:10 26.48 26.81 26.65 26.60 26.44 26.58
4/19/2018 13:00 to 12:10 26.40 26.39 26.40 26.37 26.38 26.30
4/19/2018 12:00 to 11:10 26.37 26.44 26.38 26.40 26.46 26.43
4/19/2018 11:00 to 10:10 26.36 26.42 26.31 26.36 26.34 26.39
4/19/2018 10:00 to 9:10 26.48 26.37 26.31 26.48 26.39 26.42
4/19/2018 09:00 to 8:10 26.38 26.38 26.45 26.44 26.38 26.43
4/19/2018 08:00 to 7:10 26.39 26.42 26.35 26.44 26.51 26.41
4/19/2018 07:00 to 6:10 26.45 26.45 26.48 26.48 26.40 26.59
4/19/2018 06:00 to 5:10 26.42 26.45 26.41 26.47 26.41 26.43
4/19/2018 05:00 to 4:10 26.45 26.45 26.40 26.56 26.55 26.46
4/19/2018 04:00 to 3:10 26.49 26.51 26.62 26.69 26.62 26.55
4/19/2018 03:00 to 2:10 26.75 26.59 26.62 26.63 26.37 26.68
4/19/2018 02:00 to 1:10 26.65 26.66 26.57 26.76 26.70 26.63
4/19/2018 01:00 to 0:10 26.64 26.58 26.66 26.69 26.61 26.55
4/19/2018 00:00 to 23:10 26.62 26.58 26.64 26.56 26.64 26.68
4/18/2018 23:00 to 22:10 26.59 26.61 26.59 26.85 26.88 26.99
4/18/2018 22:00 to 21:10 27.16 26.94 26.97 27.05 26.88 26.84
4/18/2018 21:00 to 20:10 26.80 26.89 26.75 26.79 26.80 26.83
4/18/2018 20:00 to 19:10 26.71 26.77 26.65 26.67 26.58 26.68
4/18/2018 19:00 to 18:10 26.73 26.55 26.63 26.65 26.70 26.77
4/18/2018 18:00 to 17:10 26.68 26.79 26.70 26.78 26.68 26.64
4/18/2018 17:00 to 16:10 26.59 26.63 26.60 26.57 26.74 26.70
4/18/2018 16:00 to 15:10 26.81 26.64 26.60 26.58 26.78 26.74
4/18/2018 15:00 to 14:10 -- -- -- -- -- --
4/18/2018 14:00 to 13:10 26.70 26.71 26.64 26.66 26.60 26.46
4/18/2018 13:00 to 12:10 26.37 26.36 26.28 26.36 26.41 26.48
4/18/2018 12:00 to 11:10 26.39 26.45 26.35 26.38 26.23 26.17
4/18/2018 11:00 to 10:10 26.21 26.22 26.18 26.27 26.21 26.12
4/18/2018 10:00 to 9:10 26.04 26.07 26.22 26.21 26.12 25.94
4/18/2018 09:00 to 8:10 26.13 25.96 25.69 25.20 25.73 26.14
4/18/2018 08:00 to 7:10 26.16 26.07 26.10 26.12 26.11 25.98
4/18/2018 07:00 to 6:10 26.13 25.95 25.99 26.16 26.04 26.11
4/18/2018 06:00 to 5:10 26.20 26.20 26.17 26.15 26.23 26.23
4/18/2018 05:00 to 4:10 26.19 26.23 26.26 26.31 26.20 26.21
4/18/2018 04:00 to 3:10 26.15 26.15 26.26 26.18 26.25 26.29
4/18/2018 03:00 to 2:10 26.21 26.20 26.18 26.27 26.30 26.18
4/18/2018 02:00 to 1:10 26.11 26.16 26.06 26.21 26.18 26.39
4/18/2018 01:00 to 0:10 26.22 26.11 26.19 26.40 26.06 25.97